sensor_id;sensor_type;location;lat;lon;timestamp;P1;durP1;ratioP1;P2;durP2;ratioP2
15293;SDS011;7748;52.474;13.454;2023-04-07T00:02:25;14.40;;;7.87;;
15293;SDS011;7748;52.474;13.454;2023-04-07T00:04:54;13.93;;;7.47;;
15293;SDS011;7748;52.474;13.454;2023-04-07T00:07:22;12.83;;;8.00;;
15293;SDS011;7748;52.474;13.454;2023-04-07T00:09:50;10.27;;;7.53;;
15293;SDS011;7748;52.474;13.454;2023-04-07T00:12:18;10.63;;;7.77;;
15293;SDS011;7748;52.474;13.454;2023-04-07T00:14:46;10.70;;;7.57;;
15293;SDS011;7748;52.474;13.454;2023-04-07T00:17:15;10.77;;;7.40;;
15293;SDS011;7748;52.474;13.454;2023-04-07T00:19:43;10.70;;;7.63;;
15293;SDS011;7748;52.474;13.454;2023-04-07T00:22:10;9.83;;;7.13;;
15293;SDS011;7748;52.474;13.454;2023-04-07T00:24:38;10.13;;;7.20;;
15293;SDS011;7748;52.474;13.454;2023-04-07T00:27:06;10.33;;;7.40;;
15293;SDS011;7748;52.474;13.454;2023-04-07T00:29:34;13.47;;;7.77;;
15293;SDS011;7748;52.474;13.454;2023-04-07T00:32:01;10.53;;;7.23;;
15293;SDS011;7748;52.474;13.454;2023-04-07T00:34:30;11.83;;;7.27;;
15293;SDS011;7748;52.474;13.454;2023-04-07T00:36:58;9.07;;;7.27;;
15293;SDS011;7748;52.474;13.454;2023-04-07T00:39:26;9.60;;;7.13;;
15293;SDS011;7748;52.474;13.454;2023-04-07T00:41:54;11.07;;;6.80;;
15293;SDS011;7748;52.474;13.454;2023-04-07T00:44:23;11.83;;;7.20;;
15293;SDS011;7748;52.474;13.454;2023-04-07T00:46:50;10.80;;;6.50;;
15293;SDS011;7748;52.474;13.454;2023-04-07T00:49:19;9.77;;;6.23;;
15293;SDS011;7748;52.474;13.454;2023-04-07T00:51:48;12.30;;;6.57;;
15293;SDS011;7748;52.474;13.454;2023-04-07T00:54:16;12.07;;;6.83;;
15293;SDS011;7748;52.474;13.454;2023-04-07T00:56:45;9.00;;;6.57;;
15293;SDS011;7748;52.474;13.454;2023-04-07T00:59:12;11.20;;;6.33;;
15293;SDS011;7748;52.474;13.454;2023-04-07T01:01:43;9.57;;;6.90;;
15293;SDS011;7748;52.474;13.454;2023-04-07T01:04:17;8.97;;;5.90;;
15293;SDS011;7748;52.474;13.454;2023-04-07T01:06:56;12.00;;;6.43;;
15293;SDS011;7748;52.474;13.454;2023-04-07T01:09:32;7.60;;;5.77;;
15293;SDS011;7748;52.474;13.454;2023-04-07T01:12:06;9.97;;;6.37;;
15293;SDS011;7748;52.474;13.454;2023-04-07T01:14:41;10.07;;;6.50;;
15293;SDS011;7748;52.474;13.454;2023-04-07T01:17:14;9.63;;;6.37;;
15293;SDS011;7748;52.474;13.454;2023-04-07T01:19:45;10.70;;;6.33;;
15293;SDS011;7748;52.474;13.454;2023-04-07T01:22:17;14.67;;;5.53;;
15293;SDS011;7748;52.474;13.454;2023-04-07T01:24:59;8.73;;;5.97;;
15293;SDS011;7748;52.474;13.454;2023-04-07T01:27:44;10.60;;;6.17;;
15293;SDS011;7748;52.474;13.454;2023-04-07T01:30:22;10.07;;;6.37;;
15293;SDS011;7748;52.474;13.454;2023-04-07T01:32:55;8.47;;;5.67;;
15293;SDS011;7748;52.474;13.454;2023-04-07T01:35:25;9.37;;;6.20;;
15293;SDS011;7748;52.474;13.454;2023-04-07T01:37:56;10.93;;;5.53;;
15293;SDS011;7748;52.474;13.454;2023-04-07T01:40:25;12.13;;;5.67;;
15293;SDS011;7748;52.474;13.454;2023-04-07T01:42:55;10.70;;;6.30;;
15293;SDS011;7748;52.474;13.454;2023-04-07T01:45:25;9.67;;;5.60;;
15293;SDS011;7748;52.474;13.454;2023-04-07T01:47:55;10.57;;;5.60;;
15293;SDS011;7748;52.474;13.454;2023-04-07T01:50:23;9.47;;;6.07;;
15293;SDS011;7748;52.474;13.454;2023-04-07T01:52:53;21.37;;;6.67;;
15293;SDS011;7748;52.474;13.454;2023-04-07T01:55:21;9.43;;;6.30;;
15293;SDS011;7748;52.474;13.454;2023-04-07T01:57:49;10.23;;;5.83;;
15293;SDS011;7748;52.474;13.454;2023-04-07T02:00:19;8.73;;;5.77;;
15293;SDS011;7748;52.474;13.454;2023-04-07T02:02:50;9.23;;;6.07;;
15293;SDS011;7748;52.474;13.454;2023-04-07T02:05:25;8.03;;;5.53;;
15293;SDS011;7748;52.474;13.454;2023-04-07T02:07:57;11.60;;;6.00;;
15293;SDS011;7748;52.474;13.454;2023-04-07T02:10:28;8.83;;;6.13;;
15293;SDS011;7748;52.474;13.454;2023-04-07T02:12:59;8.67;;;6.10;;
15293;SDS011;7748;52.474;13.454;2023-04-07T02:15:30;7.17;;;5.67;;
15293;SDS011;7748;52.474;13.454;2023-04-07T02:18:00;11.47;;;6.27;;
15293;SDS011;7748;52.474;13.454;2023-04-07T02:20:30;8.70;;;5.93;;
15293;SDS011;7748;52.474;13.454;2023-04-07T02:22:58;8.30;;;5.87;;
15293;SDS011;7748;52.474;13.454;2023-04-07T02:25:29;10.10;;;6.30;;
15293;SDS011;7748;52.474;13.454;2023-04-07T02:27:59;9.00;;;5.77;;
15293;SDS011;7748;52.474;13.454;2023-04-07T02:30:27;10.33;;;6.67;;
15293;SDS011;7748;52.474;13.454;2023-04-07T02:32:55;9.00;;;6.10;;
15293;SDS011;7748;52.474;13.454;2023-04-07T02:35:25;12.53;;;6.53;;
15293;SDS011;7748;52.474;13.454;2023-04-07T02:37:52;10.77;;;5.57;;
15293;SDS011;7748;52.474;13.454;2023-04-07T02:40:20;9.13;;;5.90;;
15293;SDS011;7748;52.474;13.454;2023-04-07T02:42:49;7.17;;;5.50;;
15293;SDS011;7748;52.474;13.454;2023-04-07T02:45:16;16.03;;;6.00;;
15293;SDS011;7748;52.474;13.454;2023-04-07T02:47:44;10.87;;;5.90;;
15293;SDS011;7748;52.474;13.454;2023-04-07T02:50:12;9.77;;;6.27;;
15293;SDS011;7748;52.474;13.454;2023-04-07T02:52:41;10.50;;;6.37;;
15293;SDS011;7748;52.474;13.454;2023-04-07T02:55:09;9.87;;;6.07;;
15293;SDS011;7748;52.474;13.454;2023-04-07T02:57:37;9.03;;;5.50;;
15293;SDS011;7748;52.474;13.454;2023-04-07T03:00:05;11.20;;;6.30;;
15293;SDS011;7748;52.474;13.454;2023-04-07T03:02:34;7.23;;;5.60;;
15293;SDS011;7748;52.474;13.454;2023-04-07T03:05:02;10.30;;;6.77;;
15293;SDS011;7748;52.474;13.454;2023-04-07T03:07:30;10.63;;;5.63;;
15293;SDS011;7748;52.474;13.454;2023-04-07T03:10:00;8.27;;;6.03;;
15293;SDS011;7748;52.474;13.454;2023-04-07T03:12:27;11.70;;;6.37;;
15293;SDS011;7748;52.474;13.454;2023-04-07T03:14:55;11.87;;;6.37;;
15293;SDS011;7748;52.474;13.454;2023-04-07T03:17:23;8.13;;;5.77;;
15293;SDS011;7748;52.474;13.454;2023-04-07T03:19:51;10.17;;;6.03;;
15293;SDS011;7748;52.474;13.454;2023-04-07T03:22:19;9.97;;;5.67;;
15293;SDS011;7748;52.474;13.454;2023-04-07T03:24:47;9.63;;;5.90;;
15293;SDS011;7748;52.474;13.454;2023-04-07T03:27:16;9.67;;;6.20;;
15293;SDS011;7748;52.474;13.454;2023-04-07T03:29:45;9.43;;;5.83;;
15293;SDS011;7748;52.474;13.454;2023-04-07T03:32:13;11.10;;;6.73;;
15293;SDS011;7748;52.474;13.454;2023-04-07T03:34:41;12.30;;;6.63;;
15293;SDS011;7748;52.474;13.454;2023-04-07T03:37:09;10.17;;;6.10;;
15293;SDS011;7748;52.474;13.454;2023-04-07T03:39:37;11.10;;;6.23;;
15293;SDS011;7748;52.474;13.454;2023-04-07T03:42:06;11.27;;;6.70;;
15293;SDS011;7748;52.474;13.454;2023-04-07T03:44:35;11.37;;;6.47;;
15293;SDS011;7748;52.474;13.454;2023-04-07T03:47:03;10.07;;;6.17;;
15293;SDS011;7748;52.474;13.454;2023-04-07T03:49:31;7.37;;;5.43;;
15293;SDS011;7748;52.474;13.454;2023-04-07T03:51:59;8.50;;;5.77;;
15293;SDS011;7748;52.474;13.454;2023-04-07T03:54:27;13.53;;;6.57;;
15293;SDS011;7748;52.474;13.454;2023-04-07T03:56:54;10.10;;;6.70;;
15293;SDS011;7748;52.474;13.454;2023-04-07T03:59:23;9.47;;;6.50;;
15293;SDS011;7748;52.474;13.454;2023-04-07T04:01:52;11.93;;;6.50;;
15293;SDS011;7748;52.474;13.454;2023-04-07T04:04:20;10.27;;;6.53;;
15293;SDS011;7748;52.474;13.454;2023-04-07T04:06:50;11.97;;;6.73;;
15293;SDS011;7748;52.474;13.454;2023-04-07T04:09:17;10.33;;;6.40;;
15293;SDS011;7748;52.474;13.454;2023-04-07T04:11:46;10.00;;;6.23;;
15293;SDS011;7748;52.474;13.454;2023-04-07T04:14:13;10.67;;;6.83;;
15293;SDS011;7748;52.474;13.454;2023-04-07T04:16:42;8.90;;;6.13;;
15293;SDS011;7748;52.474;13.454;2023-04-07T04:19:11;12.00;;;5.70;;
15293;SDS011;7748;52.474;13.454;2023-04-07T04:21:38;8.90;;;6.13;;
15293;SDS011;7748;52.474;13.454;2023-04-07T04:24:06;9.20;;;5.83;;
15293;SDS011;7748;52.474;13.454;2023-04-07T04:26:34;10.70;;;6.17;;
15293;SDS011;7748;52.474;13.454;2023-04-07T04:29:02;8.27;;;5.37;;
15293;SDS011;7748;52.474;13.454;2023-04-07T04:31:30;11.17;;;6.57;;
15293;SDS011;7748;52.474;13.454;2023-04-07T04:33:57;10.30;;;6.50;;
15293;SDS011;7748;52.474;13.454;2023-04-07T04:36:27;10.57;;;6.53;;
15293;SDS011;7748;52.474;13.454;2023-04-07T04:38:54;7.70;;;5.97;;
15293;SDS011;7748;52.474;13.454;2023-04-07T04:41:22;7.67;;;5.77;;
15293;SDS011;7748;52.474;13.454;2023-04-07T04:43:50;14.57;;;6.37;;
15293;SDS011;7748;52.474;13.454;2023-04-07T04:46:18;10.33;;;6.63;;
15293;SDS011;7748;52.474;13.454;2023-04-07T04:48:45;10.13;;;5.73;;
15293;SDS011;7748;52.474;13.454;2023-04-07T04:51:13;10.37;;;6.27;;
15293;SDS011;7748;52.474;13.454;2023-04-07T04:53:42;12.40;;;5.97;;
15293;SDS011;7748;52.474;13.454;2023-04-07T04:56:10;10.33;;;5.97;;
15293;SDS011;7748;52.474;13.454;2023-04-07T04:58:38;9.13;;;6.17;;
15293;SDS011;7748;52.474;13.454;2023-04-07T05:01:07;13.23;;;6.30;;
15293;SDS011;7748;52.474;13.454;2023-04-07T05:03:35;12.73;;;6.23;;
15293;SDS011;7748;52.474;13.454;2023-04-07T05:06:03;8.47;;;6.20;;
15293;SDS011;7748;52.474;13.454;2023-04-07T05:08:31;10.20;;;6.27;;
15293;SDS011;7748;52.474;13.454;2023-04-07T05:11:00;10.97;;;6.33;;
15293;SDS011;7748;52.474;13.454;2023-04-07T05:13:28;10.27;;;6.33;;
15293;SDS011;7748;52.474;13.454;2023-04-07T05:15:56;11.27;;;6.83;;
15293;SDS011;7748;52.474;13.454;2023-04-07T05:18:24;9.90;;;6.10;;
15293;SDS011;7748;52.474;13.454;2023-04-07T05:20:52;11.17;;;6.17;;
15293;SDS011;7748;52.474;13.454;2023-04-07T05:23:20;9.93;;;6.20;;
15293;SDS011;7748;52.474;13.454;2023-04-07T05:25:48;9.37;;;6.10;;
15293;SDS011;7748;52.474;13.454;2023-04-07T05:28:18;11.83;;;6.43;;
15293;SDS011;7748;52.474;13.454;2023-04-07T05:30:46;12.00;;;6.53;;
15293;SDS011;7748;52.474;13.454;2023-04-07T05:33:14;10.80;;;5.90;;
15293;SDS011;7748;52.474;13.454;2023-04-07T05:35:42;11.33;;;5.97;;
15293;SDS011;7748;52.474;13.454;2023-04-07T05:38:11;9.30;;;5.60;;
15293;SDS011;7748;52.474;13.454;2023-04-07T05:40:39;11.77;;;5.93;;
15293;SDS011;7748;52.474;13.454;2023-04-07T05:43:07;10.93;;;5.80;;
15293;SDS011;7748;52.474;13.454;2023-04-07T05:45:36;14.37;;;6.67;;
15293;SDS011;7748;52.474;13.454;2023-04-07T05:48:04;11.23;;;5.77;;
15293;SDS011;7748;52.474;13.454;2023-04-07T05:50:32;9.57;;;6.03;;
15293;SDS011;7748;52.474;13.454;2023-04-07T05:53:00;14.67;;;6.57;;
15293;SDS011;7748;52.474;13.454;2023-04-07T05:55:28;11.20;;;6.50;;
15293;SDS011;7748;52.474;13.454;2023-04-07T05:57:56;13.47;;;6.13;;
15293;SDS011;7748;52.474;13.454;2023-04-07T06:00:24;11.83;;;6.47;;
15293;SDS011;7748;52.474;13.454;2023-04-07T06:02:53;10.00;;;6.40;;
15293;SDS011;7748;52.474;13.454;2023-04-07T06:05:22;12.50;;;6.10;;
15293;SDS011;7748;52.474;13.454;2023-04-07T06:07:49;9.40;;;6.53;;
15293;SDS011;7748;52.474;13.454;2023-04-07T06:10:17;9.10;;;6.20;;
15293;SDS011;7748;52.474;13.454;2023-04-07T06:12:45;13.90;;;6.80;;
15293;SDS011;7748;52.474;13.454;2023-04-07T06:15:13;10.03;;;7.03;;
15293;SDS011;7748;52.474;13.454;2023-04-07T06:17:41;10.57;;;6.77;;
15293;SDS011;7748;52.474;13.454;2023-04-07T06:20:12;13.30;;;6.67;;
15293;SDS011;7748;52.474;13.454;2023-04-07T06:22:40;10.67;;;7.10;;
15293;SDS011;7748;52.474;13.454;2023-04-07T06:25:08;9.40;;;7.07;;
15293;SDS011;7748;52.474;13.454;2023-04-07T06:27:36;14.07;;;7.10;;
15293;SDS011;7748;52.474;13.454;2023-04-07T06:30:04;12.10;;;7.23;;
15293;SDS011;7748;52.474;13.454;2023-04-07T06:32:33;10.83;;;6.37;;
15293;SDS011;7748;52.474;13.454;2023-04-07T06:35:01;11.27;;;7.10;;
15293;SDS011;7748;52.474;13.454;2023-04-07T06:37:31;9.83;;;6.77;;
15293;SDS011;7748;52.474;13.454;2023-04-07T06:39:58;14.93;;;7.17;;
15293;SDS011;7748;52.474;13.454;2023-04-07T06:42:26;12.10;;;6.77;;
15293;SDS011;7748;52.474;13.454;2023-04-07T06:44:54;11.50;;;6.83;;
15293;SDS011;7748;52.474;13.454;2023-04-07T06:47:22;9.47;;;7.10;;
15293;SDS011;7748;52.474;13.454;2023-04-07T06:49:50;10.30;;;6.60;;
15293;SDS011;7748;52.474;13.454;2023-04-07T06:52:17;8.63;;;6.63;;
15293;SDS011;7748;52.474;13.454;2023-04-07T06:54:46;10.00;;;6.80;;
15293;SDS011;7748;52.474;13.454;2023-04-07T06:57:14;12.17;;;7.00;;
15293;SDS011;7748;52.474;13.454;2023-04-07T06:59:42;13.50;;;7.67;;
15293;SDS011;7748;52.474;13.454;2023-04-07T07:02:10;9.60;;;7.00;;
15293;SDS011;7748;52.474;13.454;2023-04-07T07:04:38;11.30;;;6.73;;
15293;SDS011;7748;52.474;13.454;2023-04-07T07:07:06;9.33;;;6.13;;
15293;SDS011;7748;52.474;13.454;2023-04-07T07:09:34;10.87;;;6.60;;
15293;SDS011;7748;52.474;13.454;2023-04-07T07:12:06;10.87;;;7.23;;
15293;SDS011;7748;52.474;13.454;2023-04-07T07:14:34;9.63;;;6.67;;
15293;SDS011;7748;52.474;13.454;2023-04-07T07:17:02;11.13;;;6.27;;
15293;SDS011;7748;52.474;13.454;2023-04-07T07:19:30;9.30;;;6.60;;
15293;SDS011;7748;52.474;13.454;2023-04-07T07:21:57;10.87;;;7.00;;
15293;SDS011;7748;52.474;13.454;2023-04-07T07:24:25;11.83;;;6.70;;
15293;SDS011;7748;52.474;13.454;2023-04-07T07:26:54;10.03;;;5.97;;
15293;SDS011;7748;52.474;13.454;2023-04-07T07:29:24;10.43;;;6.67;;
15293;SDS011;7748;52.474;13.454;2023-04-07T07:31:52;12.53;;;6.83;;
15293;SDS011;7748;52.474;13.454;2023-04-07T07:34:21;9.63;;;6.07;;
15293;SDS011;7748;52.474;13.454;2023-04-07T07:36:49;10.90;;;5.97;;
15293;SDS011;7748;52.474;13.454;2023-04-07T07:39:17;14.97;;;6.93;;
15293;SDS011;7748;52.474;13.454;2023-04-07T07:41:44;10.13;;;6.73;;
15293;SDS011;7748;52.474;13.454;2023-04-07T07:44:13;9.57;;;6.90;;
15293;SDS011;7748;52.474;13.454;2023-04-07T07:46:42;10.40;;;6.60;;
15293;SDS011;7748;52.474;13.454;2023-04-07T07:49:10;10.07;;;6.27;;
15293;SDS011;7748;52.474;13.454;2023-04-07T07:51:37;8.53;;;5.63;;
15293;SDS011;7748;52.474;13.454;2023-04-07T07:54:05;9.00;;;5.60;;
15293;SDS011;7748;52.474;13.454;2023-04-07T07:56:34;8.17;;;5.93;;
15293;SDS011;7748;52.474;13.454;2023-04-07T07:59:02;9.13;;;5.73;;
15293;SDS011;7748;52.474;13.454;2023-04-07T08:01:31;8.50;;;5.70;;
15293;SDS011;7748;52.474;13.454;2023-04-07T08:04:00;9.47;;;5.53;;
15293;SDS011;7748;52.474;13.454;2023-04-07T08:06:29;9.17;;;6.37;;
15293;SDS011;7748;52.474;13.454;2023-04-07T08:09:01;9.10;;;6.17;;
15293;SDS011;7748;52.474;13.454;2023-04-07T08:11:28;8.43;;;5.73;;
15293;SDS011;7748;52.474;13.454;2023-04-07T08:13:56;8.37;;;5.33;;
15293;SDS011;7748;52.474;13.454;2023-04-07T08:16:24;11.60;;;5.23;;
15293;SDS011;7748;52.474;13.454;2023-04-07T08:18:52;9.10;;;5.07;;
15293;SDS011;7748;52.474;13.454;2023-04-07T08:21:21;12.13;;;4.97;;
15293;SDS011;7748;52.474;13.454;2023-04-07T08:23:49;9.67;;;5.27;;
15293;SDS011;7748;52.474;13.454;2023-04-07T08:26:17;5.73;;;4.53;;
15293;SDS011;7748;52.474;13.454;2023-04-07T08:28:44;8.40;;;5.70;;
15293;SDS011;7748;52.474;13.454;2023-04-07T08:31:12;7.63;;;5.10;;
15293;SDS011;7748;52.474;13.454;2023-04-07T08:33:40;10.07;;;5.73;;
15293;SDS011;7748;52.474;13.454;2023-04-07T08:36:08;9.03;;;5.07;;
15293;SDS011;7748;52.474;13.454;2023-04-07T08:38:37;7.63;;;5.17;;
15293;SDS011;7748;52.474;13.454;2023-04-07T08:41:06;6.97;;;4.83;;
15293;SDS011;7748;52.474;13.454;2023-04-07T08:43:37;9.03;;;5.37;;
15293;SDS011;7748;52.474;13.454;2023-04-07T08:46:05;7.57;;;4.97;;
15293;SDS011;7748;52.474;13.454;2023-04-07T08:48:36;10.33;;;5.20;;
15293;SDS011;7748;52.474;13.454;2023-04-07T08:51:06;10.57;;;4.70;;
15293;SDS011;7748;52.474;13.454;2023-04-07T08:53:39;8.80;;;5.10;;
15293;SDS011;7748;52.474;13.454;2023-04-07T08:56:10;8.00;;;5.60;;
15293;SDS011;7748;52.474;13.454;2023-04-07T08:58:38;8.27;;;4.93;;
15293;SDS011;7748;52.474;13.454;2023-04-07T09:01:07;6.43;;;4.73;;
15293;SDS011;7748;52.474;13.454;2023-04-07T09:03:35;6.43;;;4.37;;
15293;SDS011;7748;52.474;13.454;2023-04-07T09:06:04;7.03;;;4.33;;
15293;SDS011;7748;52.474;13.454;2023-04-07T09:08:36;5.07;;;4.10;;
15293;SDS011;7748;52.474;13.454;2023-04-07T09:11:05;6.03;;;4.50;;
15293;SDS011;7748;52.474;13.454;2023-04-07T09:13:33;4.57;;;3.10;;
15293;SDS011;7748;52.474;13.454;2023-04-07T09:16:01;4.50;;;3.40;;
15293;SDS011;7748;52.474;13.454;2023-04-07T09:18:29;8.83;;;3.87;;
15293;SDS011;7748;52.474;13.454;2023-04-07T09:20:58;6.27;;;4.17;;
15293;SDS011;7748;52.474;13.454;2023-04-07T09:23:30;7.10;;;2.87;;
15293;SDS011;7748;52.474;13.454;2023-04-07T09:26:01;4.77;;;3.60;;
15293;SDS011;7748;52.474;13.454;2023-04-07T09:28:47;4.97;;;3.37;;
15293;SDS011;7748;52.474;13.454;2023-04-07T09:31:16;6.30;;;3.93;;
15293;SDS011;7748;52.474;13.454;2023-04-07T09:33:44;5.90;;;3.80;;
15293;SDS011;7748;52.474;13.454;2023-04-07T09:36:13;4.60;;;3.40;;
15293;SDS011;7748;52.474;13.454;2023-04-07T09:38:42;7.57;;;3.80;;
15293;SDS011;7748;52.474;13.454;2023-04-07T09:41:12;9.50;;;4.17;;
15293;SDS011;7748;52.474;13.454;2023-04-07T09:43:42;10.57;;;3.90;;
15293;SDS011;7748;52.474;13.454;2023-04-07T09:46:12;7.97;;;3.83;;
15293;SDS011;7748;52.474;13.454;2023-04-07T09:48:42;6.63;;;3.93;;
15293;SDS011;7748;52.474;13.454;2023-04-07T09:51:11;5.73;;;3.60;;
15293;SDS011;7748;52.474;13.454;2023-04-07T09:53:44;6.83;;;4.00;;
15293;SDS011;7748;52.474;13.454;2023-04-07T09:56:16;6.10;;;3.83;;
15293;SDS011;7748;52.474;13.454;2023-04-07T09:58:45;4.90;;;3.57;;
15293;SDS011;7748;52.474;13.454;2023-04-07T10:01:14;9.93;;;4.53;;
15293;SDS011;7748;52.474;13.454;2023-04-07T10:03:43;9.27;;;3.70;;
15293;SDS011;7748;52.474;13.454;2023-04-07T10:06:13;5.83;;;3.83;;
15293;SDS011;7748;52.474;13.454;2023-04-07T10:08:41;3.87;;;3.27;;
15293;SDS011;7748;52.474;13.454;2023-04-07T10:11:09;5.83;;;4.20;;
15293;SDS011;7748;52.474;13.454;2023-04-07T10:13:39;7.50;;;3.87;;
15293;SDS011;7748;52.474;13.454;2023-04-07T10:16:07;4.23;;;3.50;;
15293;SDS011;7748;52.474;13.454;2023-04-07T10:18:35;4.80;;;3.53;;
15293;SDS011;7748;52.474;13.454;2023-04-07T10:21:05;5.40;;;3.50;;
15293;SDS011;7748;52.474;13.454;2023-04-07T10:23:42;7.50;;;4.00;;
15293;SDS011;7748;52.474;13.454;2023-04-07T10:26:20;5.63;;;4.10;;
15293;SDS011;7748;52.474;13.454;2023-04-07T10:28:54;5.13;;;3.40;;
15293;SDS011;7748;52.474;13.454;2023-04-07T10:31:26;4.80;;;3.47;;
15293;SDS011;7748;52.474;13.454;2023-04-07T10:33:55;6.23;;;4.00;;
15293;SDS011;7748;52.474;13.454;2023-04-07T10:36:23;5.83;;;3.73;;
15293;SDS011;7748;52.474;13.454;2023-04-07T10:41:47;7.00;;;4.10;;
15293;SDS011;7748;52.474;13.454;2023-04-07T10:47:15;6.17;;;4.20;;
15293;SDS011;7748;52.474;13.454;2023-04-07T10:52:43;5.53;;;4.23;;
15293;SDS011;7748;52.474;13.454;2023-04-07T10:55:28;6.33;;;4.43;;
15293;SDS011;7748;52.474;13.454;2023-04-07T10:58:19;6.03;;;3.93;;
15293;SDS011;7748;52.474;13.454;2023-04-07T11:03:58;6.17;;;4.07;;
15293;SDS011;7748;52.474;13.454;2023-04-07T11:06:30;7.67;;;4.20;;
15293;SDS011;7748;52.474;13.454;2023-04-07T11:08:57;4.57;;;3.57;;
15293;SDS011;7748;52.474;13.454;2023-04-07T11:11:38;6.53;;;3.50;;
15293;SDS011;7748;52.474;13.454;2023-04-07T11:14:08;7.70;;;3.97;;
15293;SDS011;7748;52.474;13.454;2023-04-07T11:16:38;5.27;;;3.80;;
15293;SDS011;7748;52.474;13.454;2023-04-07T11:19:07;7.70;;;4.33;;
15293;SDS011;7748;52.474;13.454;2023-04-07T11:21:35;8.73;;;4.90;;
15293;SDS011;7748;52.474;13.454;2023-04-07T11:24:03;5.07;;;4.53;;
15293;SDS011;7748;52.474;13.454;2023-04-07T11:26:38;7.37;;;4.30;;
15293;SDS011;7748;52.474;13.454;2023-04-07T11:29:09;8.90;;;5.73;;
15293;SDS011;7748;52.474;13.454;2023-04-07T11:31:40;8.70;;;5.50;;
15293;SDS011;7748;52.474;13.454;2023-04-07T11:34:14;6.03;;;4.97;;
15293;SDS011;7748;52.474;13.454;2023-04-07T11:36:42;9.33;;;5.07;;
15293;SDS011;7748;52.474;13.454;2023-04-07T11:39:19;8.47;;;6.00;;
15293;SDS011;7748;52.474;13.454;2023-04-07T11:41:48;11.40;;;7.53;;
15293;SDS011;7748;52.474;13.454;2023-04-07T11:44:17;10.50;;;7.90;;
15293;SDS011;7748;52.474;13.454;2023-04-07T11:46:52;8.23;;;6.40;;
15293;SDS011;7748;52.474;13.454;2023-04-07T11:49:22;11.57;;;8.80;;
15293;SDS011;7748;52.474;13.454;2023-04-07T11:51:56;15.20;;;10.23;;
15293;SDS011;7748;52.474;13.454;2023-04-07T11:54:25;15.13;;;11.30;;
15293;SDS011;7748;52.474;13.454;2023-04-07T11:56:52;15.57;;;12.03;;
15293;SDS011;7748;52.474;13.454;2023-04-07T11:59:21;18.53;;;12.10;;
15293;SDS011;7748;52.474;13.454;2023-04-07T12:01:50;14.53;;;11.57;;
15293;SDS011;7748;52.474;13.454;2023-04-07T12:04:23;12.10;;;8.97;;
15293;SDS011;7748;52.474;13.454;2023-04-07T12:06:51;16.60;;;10.20;;
15293;SDS011;7748;52.474;13.454;2023-04-07T12:09:26;14.83;;;10.07;;
15293;SDS011;7748;52.474;13.454;2023-04-07T12:11:57;14.53;;;10.37;;
15293;SDS011;7748;52.474;13.454;2023-04-07T12:14:27;18.10;;;12.10;;
15293;SDS011;7748;52.474;13.454;2023-04-07T12:16:57;12.40;;;8.63;;
15293;SDS011;7748;52.474;13.454;2023-04-07T12:19:27;13.07;;;8.20;;
15293;SDS011;7748;52.474;13.454;2023-04-07T12:21:55;8.27;;;7.00;;
15293;SDS011;7748;52.474;13.454;2023-04-07T12:24:23;11.57;;;7.87;;
15293;SDS011;7748;52.474;13.454;2023-04-07T12:26:52;13.27;;;8.33;;
15293;SDS011;7748;52.474;13.454;2023-04-07T12:29:20;10.77;;;6.70;;
15293;SDS011;7748;52.474;13.454;2023-04-07T12:31:48;11.13;;;7.00;;
15293;SDS011;7748;52.474;13.454;2023-04-07T12:34:19;13.83;;;8.43;;
15293;SDS011;7748;52.474;13.454;2023-04-07T12:36:47;13.07;;;7.60;;
15293;SDS011;7748;52.474;13.454;2023-04-07T12:39:15;15.50;;;9.10;;
15293;SDS011;7748;52.474;13.454;2023-04-07T12:41:43;14.03;;;9.17;;
15293;SDS011;7748;52.474;13.454;2023-04-07T12:44:12;16.43;;;10.27;;
15293;SDS011;7748;52.474;13.454;2023-04-07T12:46:42;17.77;;;11.77;;
15293;SDS011;7748;52.474;13.454;2023-04-07T12:49:10;16.60;;;11.73;;
15293;SDS011;7748;52.474;13.454;2023-04-07T12:51:39;18.63;;;11.50;;
15293;SDS011;7748;52.474;13.454;2023-04-07T12:54:07;18.30;;;11.30;;
15293;SDS011;7748;52.474;13.454;2023-04-07T12:56:36;17.30;;;11.57;;
15293;SDS011;7748;52.474;13.454;2023-04-07T12:59:05;15.17;;;10.30;;
15293;SDS011;7748;52.474;13.454;2023-04-07T13:01:33;13.97;;;10.13;;
15293;SDS011;7748;52.474;13.454;2023-04-07T13:04:02;14.20;;;9.50;;
15293;SDS011;7748;52.474;13.454;2023-04-07T13:06:30;13.67;;;9.67;;
15293;SDS011;7748;52.474;13.454;2023-04-07T13:09:00;13.40;;;7.50;;
15293;SDS011;7748;52.474;13.454;2023-04-07T13:11:28;11.67;;;7.60;;
15293;SDS011;7748;52.474;13.454;2023-04-07T13:13:55;9.77;;;6.23;;
15293;SDS011;7748;52.474;13.454;2023-04-07T13:16:26;7.63;;;5.33;;
15293;SDS011;7748;52.474;13.454;2023-04-07T13:18:54;10.03;;;5.67;;
15293;SDS011;7748;52.474;13.454;2023-04-07T13:21:22;9.07;;;5.63;;
15293;SDS011;7748;52.474;13.454;2023-04-07T13:23:53;7.87;;;4.97;;
15293;SDS011;7748;52.474;13.454;2023-04-07T13:26:23;8.27;;;5.43;;
15293;SDS011;7748;52.474;13.454;2023-04-07T13:28:51;6.40;;;4.10;;
15293;SDS011;7748;52.474;13.454;2023-04-07T13:31:19;6.50;;;4.37;;
15293;SDS011;7748;52.474;13.454;2023-04-07T13:33:48;6.60;;;4.43;;
15293;SDS011;7748;52.474;13.454;2023-04-07T13:36:17;5.37;;;4.17;;
15293;SDS011;7748;52.474;13.454;2023-04-07T13:38:48;4.10;;;3.60;;
15293;SDS011;7748;52.474;13.454;2023-04-07T13:41:16;5.47;;;4.00;;
15293;SDS011;7748;52.474;13.454;2023-04-07T13:43:45;6.43;;;4.03;;
15293;SDS011;7748;52.474;13.454;2023-04-07T13:46:13;5.67;;;4.20;;
15293;SDS011;7748;52.474;13.454;2023-04-07T13:48:54;6.47;;;4.67;;
15293;SDS011;7748;52.474;13.454;2023-04-07T13:51:22;5.83;;;4.57;;
15293;SDS011;7748;52.474;13.454;2023-04-07T13:53:50;6.20;;;4.13;;
15293;SDS011;7748;52.474;13.454;2023-04-07T13:56:18;6.37;;;4.47;;
15293;SDS011;7748;52.474;13.454;2023-04-07T13:58:48;6.43;;;4.60;;
15293;SDS011;7748;52.474;13.454;2023-04-07T14:01:17;9.50;;;4.67;;
15293;SDS011;7748;52.474;13.454;2023-04-07T14:03:46;5.83;;;4.20;;
15293;SDS011;7748;52.474;13.454;2023-04-07T14:06:15;6.70;;;4.70;;
15293;SDS011;7748;52.474;13.454;2023-04-07T14:08:43;5.53;;;4.83;;
15293;SDS011;7748;52.474;13.454;2023-04-07T14:11:11;6.13;;;4.37;;
15293;SDS011;7748;52.474;13.454;2023-04-07T14:13:38;5.07;;;3.90;;
15293;SDS011;7748;52.474;13.454;2023-04-07T14:16:08;7.40;;;4.80;;
15293;SDS011;7748;52.474;13.454;2023-04-07T14:18:35;6.40;;;4.63;;
15293;SDS011;7748;52.474;13.454;2023-04-07T14:21:03;8.50;;;5.23;;
15293;SDS011;7748;52.474;13.454;2023-04-07T14:23:31;9.13;;;5.63;;
15293;SDS011;7748;52.474;13.454;2023-04-07T14:26:03;5.33;;;4.57;;
15293;SDS011;7748;52.474;13.454;2023-04-07T14:28:31;6.23;;;4.90;;
15293;SDS011;7748;52.474;13.454;2023-04-07T14:30:59;8.17;;;5.10;;
15293;SDS011;7748;52.474;13.454;2023-04-07T14:33:28;6.90;;;5.17;;
15293;SDS011;7748;52.474;13.454;2023-04-07T14:35:56;7.23;;;4.80;;
15293;SDS011;7748;52.474;13.454;2023-04-07T14:38:24;5.93;;;4.33;;
15293;SDS011;7748;52.474;13.454;2023-04-07T14:40:52;9.23;;;5.77;;
15293;SDS011;7748;52.474;13.454;2023-04-07T14:43:20;9.37;;;5.70;;
15293;SDS011;7748;52.474;13.454;2023-04-07T14:45:48;7.60;;;4.63;;
15293;SDS011;7748;52.474;13.454;2023-04-07T14:48:16;6.43;;;3.90;;
15293;SDS011;7748;52.474;13.454;2023-04-07T14:50:45;5.57;;;4.23;;
15293;SDS011;7748;52.474;13.454;2023-04-07T14:53:21;5.77;;;4.37;;
15293;SDS011;7748;52.474;13.454;2023-04-07T14:55:49;7.77;;;4.77;;
15293;SDS011;7748;52.474;13.454;2023-04-07T14:58:17;6.13;;;4.63;;
15293;SDS011;7748;52.474;13.454;2023-04-07T15:00:45;6.83;;;5.07;;
15293;SDS011;7748;52.474;13.454;2023-04-07T15:03:12;6.90;;;4.97;;
15293;SDS011;7748;52.474;13.454;2023-04-07T15:05:41;7.20;;;4.73;;